Time;durP1;ratioP1;P1;durP2;ratioP2;P2;SDS_P1;SDS_P2;PMS_P1;PMS_P2;Temp;Humidity;BMP_temperature;BMP_pressure;BME280_temperature;BME280_humidity;BME280_pressure;Samples;Min_cycle;Max_cycle;Signal;HPM_P1;HPM_P2
2021/08/06 00:02:11;;;;;;;34.85;15.13;;;;;;;15.66;80.99;99379.56;5094251;28;20409;-78
2021/08/06 00:04:37;;;;;;;36.50;13.95;;;;;;;15.63;81.04;99382.53;5094346;28;20044;-76
2021/08/06 00:07:03;;;;;;;35.58;16.85;;;;;;;15.64;81.10;99389.53;5094781;28;20051;-80
2021/08/06 00:09:30;;;;;;;38.40;17.00;;;;;;;15.62;80.99;99375.53;5060029;28;20463;-77
2021/08/06 00:11:58;;;;;;;41.97;15.48;;;;;;;15.60;81.17;99382.88;5076176;28;20044;-79
2021/08/06 00:14:25;;;;;;;42.15;18.30;;;;;;;15.56;81.14;99370.84;5059811;28;20063;-76
2021/08/06 00:16:52;;;;;;;31.80;15.35;;;;;;;15.53;81.22;99368.50;5094362;28;20119;-76
2021/08/06 00:19:17;;;;;;;41.17;16.95;;;;;;;15.45;81.42;99366.63;5059374;28;20365;-75
2021/08/06 00:21:43;;;;;;;36.67;15.68;;;;;;;15.37;81.14;99362.06;5043004;28;20051;-81
2021/08/06 00:24:09;;;;;;;36.72;16.60;;;;;;;15.31;81.56;99353.88;5094317;28;20040;-76
2021/08/06 00:26:35;;;;;;;37.00;17.40;;;;;;;15.27;81.45;99350.69;5042596;28;20036;-78
2021/08/06 00:29:01;;;;;;;33.53;17.00;;;;;;;15.30;81.45;99342.38;5093642;28;20072;-78
2021/08/06 00:31:27;;;;;;;35.42;17.00;;;;;;;15.29;81.38;99327.38;5093862;28;20137;-77
2021/08/06 00:33:54;;;;;;;33.33;16.20;;;;;;;15.26;81.14;99326.88;5075190;28;20055;-76
2021/08/06 00:36:20;;;;;;;39.00;17.48;;;;;;;15.19;81.17;99324.00;5075882;28;20058;-76
2021/08/06 00:38:47;;;;;;;35.58;16.92;;;;;;;15.26;81.76;99322.34;5073796;28;20046;-77
2021/08/06 00:41:13;;;;;;;35.28;17.20;;;;;;;15.33;81.51;99322.59;5058173;28;20036;-77
2021/08/06 00:43:40;;;;;;;37.22;17.88;;;;;;;15.39;81.51;99339.75;5074871;28;20409;-76
2021/08/06 00:46:16;;;;;;;36.03;17.15;;;;;;;15.48;80.79;99336.16;5075184;28;20501;-77
2021/08/06 00:48:44;;;;;;;30.10;15.18;;;;;;;15.52;80.68;99340.16;5075109;28;20044;-77
2021/08/06 00:51:11;;;;;;;34.78;15.95;;;;;;;15.55;80.28;99328.34;5058320;28;20090;-75
2021/08/06 00:53:40;;;;;;;28.02;15.35;;;;;;;15.54;80.35;99324.88;5075408;28;20505;-76
2021/08/06 00:56:10;;;;;;;30.58;16.02;;;;;;;15.53;80.40;99329.34;5074883;28;20492;-74
2021/08/06 00:58:38;;;;;;;33.30;16.02;;;;;;;15.53;80.23;99328.50;5057979;28;20040;-77
2021/08/06 01:01:07;;;;;;;33.83;16.23;;;;;;;15.52;80.41;99334.84;5058327;28;20067;-73
2021/08/06 01:03:42;;;;;;;31.90;15.20;;;;;;;15.50;80.39;99339.47;5075025;28;20063;-76
2021/08/06 01:06:22;;;;;;;33.13;16.30;;;;;;;15.50;80.61;99334.16;5075071;28;20059;-75
2021/08/06 01:08:56;;;;;;;36.80;15.70;;;;;;;15.48;80.52;99325.50;5058403;28;20075;-75
2021/08/06 01:11:26;;;;;;;34.72;15.43;;;;;;;15.47;80.55;99321.97;5058532;28;20044;-75
2021/08/06 01:13:58;;;;;;;29.45;16.58;;;;;;;15.43;80.69;99322.47;5074604;28;20060;-77
2021/08/06 01:16:28;;;;;;;32.83;15.60;;;;;;;15.40;80.91;99317.44;5074961;28;20050;-76
2021/08/06 01:19:38;;;;;;;31.90;15.35;;;;;;;15.44;80.95;99321.44;5058060;28;20109;-75
2021/08/06 01:22:15;;;;;;;30.45;16.00;;;;;;;15.45;80.79;99321.31;5058603;28;20125;-77
2021/08/06 01:24:50;;;;;;;29.83;16.00;;;;;;;15.52;80.28;99305.50;5074773;28;20048;-77
2021/08/06 01:27:17;;;;;;;32.63;16.77;;;;;;;15.57;80.32;99308.53;5058594;28;20036;-77
2021/08/06 01:29:44;;;;;;;30.90;16.77;;;;;;;15.58;80.14;99304.06;5074590;28;20125;-75
2021/08/06 01:32:11;;;;;;;30.90;16.42;;;;;;;15.64;80.24;99314.09;5075362;28;20052;-77
2021/08/06 01:34:41;;;;;;;27.92;15.05;;;;;;;15.67;79.89;99309.22;5075087;28;20044;-75
2021/08/06 01:37:08;;;;;;;26.60;15.20;;;;;;;15.74;79.42;99304.13;5075554;28;20040;-77
2021/08/06 01:39:44;;;;;;;32.10;15.05;;;;;;;15.81;79.38;99293.63;5092952;28;20043;-76
2021/08/06 01:42:20;;;;;;;29.80;15.05;;;;;;;15.81;79.24;99304.28;5074387;28;20063;-76
2021/08/06 01:44:54;;;;;;;26.63;14.68;;;;;;;15.82;79.23;99304.16;5074251;28;20044;-74
2021/08/06 01:47:38;;;;;;;27.65;15.15;;;;;;;15.84;79.02;99304.84;5074485;28;20044;-74
2021/08/06 01:50:16;;;;;;;28.75;15.60;;;;;;;15.84;79.04;99314.69;5074076;28;20082;-75
2021/08/06 01:52:59;;;;;;;34.90;15.43;;;;;;;15.91;78.88;99313.00;5058023;28;20447;-76
2021/08/06 01:55:38;;;;;;;25.48;14.77;;;;;;;15.97;78.72;99304.38;5074396;28;20074;-78
2021/08/06 01:58:04;;;;;;;30.92;15.63;;;;;;;16.03;78.63;99307.41;5074099;28;20413;-75
2021/08/06 02:00:38;;;;;;;28.88;15.05;;;;;;;16.05;78.37;99306.25;5055160;28;20048;-75
2021/08/06 02:03:07;;;;;;;31.35;14.88;;;;;;;16.08;78.23;99305.09;5040139;28;20054;-77
2021/08/06 02:05:34;;;;;;;29.73;15.80;;;;;;;16.07;78.17;99311.41;5056209;28;20046;-75
2021/08/06 02:08:09;;;;;;;29.48;15.48;;;;;;;16.05;78.03;99300.06;5073565;28;20043;-75
2021/08/06 02:10:38;;;;;;;30.15;16.08;;;;;;;16.07;78.11;99306.06;5073772;28;20076;-75
2021/08/06 02:13:05;;;;;;;32.58;15.45;;;;;;;16.09;78.08;99301.41;5073381;28;20106;-74
2021/08/06 02:15:33;;;;;;;29.15;15.23;;;;;;;16.13;78.04;99297.41;5073913;28;20048;-77
2021/08/06 02:17:59;;;;;;;;;;;;;;;16.11;77.95;99294.06;5074086;28;20124;-74
2021/08/06 02:20:38;;;;;;;25.88;15.07;;;;;;;16.09;77.75;99291.56;5059169;28;20041;-77
2021/08/06 02:23:06;;;;;;;34.08;15.98;;;;;;;16.09;77.68;99291.56;5073898;28;20568;-75
2021/08/06 02:25:34;;;;;;;31.67;16.50;;;;;;;16.08;78.08;99286.41;5057327;28;20050;-77
2021/08/06 02:28:01;;;;;;;28.88;15.32;;;;;;;16.05;78.07;99268.03;5057044;28;20044;-76
2021/08/06 02:30:35;;;;;;;31.33;15.65;;;;;;;16.07;78.07;99272.22;5091577;28;20056;-76
2021/08/06 02:33:01;;;;;;;32.92;15.68;;;;;;;16.07;77.97;99272.22;5091168;28;20051;-73
2021/08/06 02:35:27;;;;;;;39.05;16.02;;;;;;;16.07;77.93;99266.06;5056684;28;20036;-74
2021/08/06 02:37:53;;;;;;;30.92;14.80;;;;;;;16.09;77.93;99269.41;5056851;28;20112;-75
2021/08/06 02:40:18;;;;;;;29.70;15.18;;;;;;;16.15;77.67;99274.91;5073862;28;20043;-72
2021/08/06 02:42:45;;;;;;;32.30;15.18;;;;;;;16.21;77.57;99276.06;5091720;28;20044;-75
2021/08/06 02:45:11;;;;;;;35.67;15.02;;;;;;;16.24;77.39;99273.09;5073077;28;20040;-75
2021/08/06 02:47:36;;;;;;;29.83;15.13;;;;;;;16.25;77.22;99277.44;5073781;28;20044;-74
2021/08/06 02:50:04;;;;;;;29.83;15.38;;;;;;;16.28;77.25;99273.59;5073678;28;20036;-76
2021/08/06 02:52:31;;;;;;;26.47;14.77;;;;;;;16.31;77.22;99271.44;5073426;28;20068;-77
2021/08/06 02:54:57;;;;;;;32.50;17.00;;;;;;;16.33;77.18;99268.59;5090814;28;20515;-80
2021/08/06 02:57:24;;;;;;;32.05;15.45;;;;;;;16.34;77.17;99267.59;5073604;28;20606;-77
2021/08/06 02:59:51;;;;;;;29.75;14.52;;;;;;;16.37;77.20;99261.09;5092249;28;20055;-79
2021/08/06 03:02:18;;;;;;;30.80;15.48;;;;;;;16.31;77.16;99255.41;5057566;28;20032;-79
2021/08/06 03:04:45;;;;;;;30.20;15.82;;;;;;;16.31;77.28;99260.75;5057073;28;20059;-77
2021/08/06 03:07:14;;;;;;;35.03;16.80;;;;;;;16.33;76.97;99265.91;5074320;28;20040;-79
2021/08/06 03:09:40;;;;;;;26.20;15.30;;;;;;;16.40;76.98;99260.75;5073678;28;20044;-80
2021/08/06 03:12:06;;;;;;;32.38;18.75;;;;;;;16.44;77.00;99268.25;5073204;28;20101;-75
2021/08/06 03:14:36;;;;;;;37.03;18.30;;;;;;;16.54;76.53;99278.78;5075530;28;20533;-75
2021/08/06 03:17:03;;;;;;;39.27;19.17;;;;;;;16.56;76.52;99276.78;5060411;28;20068;-76
2021/08/06 03:19:31;;;;;;;34.97;18.10;;;;;;;16.63;76.31;99271.59;5076100;28;20056;-77
2021/08/06 03:21:58;;;;;;;39.10;17.80;;;;;;;16.73;76.43;99279.44;5076472;28;20068;-78
2021/08/06 03:24:24;;;;;;;36.17;17.50;;;;;;;16.78;76.01;99279.75;5076871;28;20079;-74
2021/08/06 03:26:52;;;;;;;35.80;15.32;;;;;;;16.84;75.78;99289.78;5076725;28;20044;-75
2021/08/06 03:29:21;;;;;;;28.73;15.75;;;;;;;16.84;75.58;99289.78;5077249;28;20047;-76
2021/08/06 03:31:47;;;;;;;30.75;15.55;;;;;;;16.85;75.60;99277.25;5076841;28;20126;-76
2021/08/06 03:34:14;;;;;;;34.37;15.57;;;;;;;16.86;75.39;99281.59;5076375;28;20230;-75
2021/08/06 03:36:41;;;;;;;31.67;15.93;;;;;;;16.86;75.40;99277.09;5076726;28;20039;-75
2021/08/06 03:39:07;;;;;;;39.33;16.15;;;;;;;16.89;75.44;99271.41;5076579;28;20044;-75
2021/08/06 03:41:34;;;;;;;33.47;16.65;;;;;;;16.81;75.83;99274.09;5076727;28;20048;-75
2021/08/06 03:44:01;;;;;;;32.13;16.52;;;;;;;16.82;75.57;99270.41;5076525;28;20039;-75
2021/08/06 03:46:29;;;;;;;35.40;15.32;;;;;;;16.89;75.61;99271.41;5076858;28;20047;-76
2021/08/06 03:48:54;;;;;;;35.10;17.00;;;;;;;16.89;75.28;99268.72;5076469;28;20048;-77
2021/08/06 03:51:20;;;;;;;36.20;15.23;;;;;;;16.92;75.10;99264.91;5076283;28;20448;-77
2021/08/06 03:53:47;;;;;;;41.13;15.88;;;;;;;16.88;75.11;99264.38;5076278;28;20492;-78
2021/08/06 03:56:13;;;;;;;41.08;16.65;;;;;;;16.98;75.09;99267.75;5075832;28;20051;-78
2021/08/06 03:58:40;;;;;;;36.53;15.18;;;;;;;17.14;74.67;99264.19;5076624;28;20174;-78
2021/08/06 04:01:06;;;;;;;31.50;15.70;;;;;;;17.24;74.77;99257.84;5059467;28;20138;-79
2021/08/06 04:03:34;;;;;;;37.47;17.77;;;;;;;17.28;74.57;99260.00;5059562;28;20492;-78
2021/08/06 04:06:00;;;;;;;32.08;15.98;;;;;;;17.34;73.93;99262.97;5075789;28;20531;-78
2021/08/06 04:08:26;;;;;;;28.63;15.02;;;;;;;17.43;73.58;99267.28;5075623;28;20040;-78
2021/08/06 04:10:56;;;;;;;35.10;16.75;;;;;;;17.57;72.99;99273.72;5075971;28;20059;-76
2021/08/06 04:13:23;;;;;;;30.83;16.15;;;;;;;17.60;73.16;99268.06;5075756;28;20371;-79
2021/08/06 04:15:49;;;;;;;36.45;16.67;;;;;;;17.58;73.18;99272.72;5075368;28;20047;-78
2021/08/06 04:18:14;;;;;;;32.55;16.55;;;;;;;17.59;73.09;99267.19;5059666;28;20481;-76
2021/08/06 04:20:41;;;;;;;41.05;16.30;;;;;;;17.70;72.90;99274.00;5075510;28;20050;-78
2021/08/06 04:23:07;;;;;;;38.35;16.25;;;;;;;17.66;73.33;99263.84;5059163;28;20036;-80
2021/08/06 04:25:33;;;;;;;40.33;17.98;;;;;;;17.65;73.51;99271.03;5075708;28;20134;-81
2021/08/06 04:28:00;;;;;;;33.85;17.13;;;;;;;17.61;74.07;99259.84;5059357;28;20491;-78
2021/08/06 04:30:26;;;;;;;39.92;18.92;;;;;;;17.58;74.37;99267.38;5076165;28;20044;-78
2021/08/06 04:32:51;;;;;;;50.58;18.23;;;;;;;17.55;74.82;99268.56;5093566;28;20040;-80
2021/08/06 04:35:18;;;;;;;51.20;18.52;;;;;;;17.60;74.47;99268.88;5093435;28;20043;-82
2021/08/06 04:37:49;;;;;;;54.72;19.15;;;;;;;17.70;74.24;99278.53;5043484;28;20135;-79
2021/08/06 04:40:15;;;;;;;62.03;18.98;;;;;;;17.71;73.98;99281.03;5042696;28;20055;-79
2021/08/06 04:42:41;;;;;;;55.17;17.95;;;;;;;17.74;73.65;99285.19;5075702;28;20058;-78
2021/08/06 04:45:07;;;;;;;53.80;18.17;;;;;;;17.78;73.47;99291.84;5058803;28;20133;-79
2021/08/06 04:47:33;;;;;;;52.13;18.13;;;;;;;17.83;73.46;99283.31;5075418;28;20634;-82
2021/08/06 04:49:59;;;;;;;54.35;18.73;;;;;;;17.88;73.26;99289.81;5075981;28;20073;-78
2021/08/06 04:52:25;;;;;;;51.53;20.13;;;;;;;17.91;73.22;99294.81;5075309;28;20042;-76
2021/08/06 04:54:51;;;;;;;54.00;18.50;;;;;;;17.92;73.54;99288.47;5093259;28;20122;-77
2021/08/06 04:57:18;;;;;;;47.45;17.50;;;;;;;17.92;73.23;99283.09;5059189;28;20043;-82
2021/08/06 04:59:43;;;;;;;49.53;19.45;;;;;;;17.92;73.72;99287.63;5075850;28;20500;-77
2021/08/06 05:02:09;;;;;;;45.70;17.40;;;;;;;17.94;73.71;99293.66;5075554;28;20603;-81
2021/08/06 05:04:35;;;;;;;50.13;20.15;;;;;;;17.92;73.59;99304.50;5058713;28;20097;-79
2021/08/06 05:07:01;;;;;;;38.10;17.02;;;;;;;17.92;73.85;99293.81;5093641;28;20469;-80
2021/08/06 05:09:27;;;;;;;47.17;18.15;;;;;;;17.92;73.63;99301.84;5075739;28;20043;-79
2021/08/06 05:11:52;;;;;;;49.00;18.80;;;;;;;17.86;73.94;99296.38;5093299;28;20040;-78
2021/08/06 05:14:18;;;;;;;35.80;17.67;;;;;;;17.92;73.86;99299.16;5042765;28;20060;-78
2021/08/06 05:16:44;;;;;;;49.15;18.48;;;;;;;17.92;74.11;99293.81;5060028;28;20097;-81
2021/08/06 05:19:10;;;;;;;38.42;17.70;;;;;;;17.85;74.27;99297.38;5074999;28;20039;-82
2021/08/06 05:21:36;;;;;;;41.60;17.05;;;;;;;17.87;74.28;99288.16;5075273;28;20047;-80
2021/08/06 05:24:02;;;;;;;40.47;17.13;;;;;;;17.92;73.70;99299.16;5058442;28;20040;-79
2021/08/06 05:26:28;;;;;;;34.00;17.35;;;;;;;17.94;73.71;99297.19;5075238;28;20048;-80
2021/08/06 05:28:54;;;;;;;36.83;18.02;;;;;;;18.04;73.80;99296.94;5092809;28;20051;-79
2021/08/06 05:31:22;;;;;;;42.53;17.63;;;;;;;18.09;72.52;99301.75;5058437;28;20044;-80
2021/08/06 05:33:49;;;;;;;35.33;17.52;;;;;;;18.13;73.09;99302.25;5058494;28;20044;-80
2021/08/06 05:36:15;;;;;;;31.13;17.02;;;;;;;18.23;71.57;99300.16;5058176;28;20527;-78
2021/08/06 05:38:41;;;;;;;36.72;17.50;;;;;;;18.31;70.84;99297.44;5074008;28;20044;-78
2021/08/06 05:41:07;;;;;;;33.00;17.23;;;;;;;18.41;70.63;99298.03;5058163;28;20400;-87
2021/08/06 05:43:33;;;;;;;32.63;17.27;;;;;;;18.48;70.09;99300.00;5042048;28;20512;-79
2021/08/06 05:45:59;;;;;;;34.63;16.80;;;;;;;18.54;70.25;99302.81;5059062;28;20075;-79
2021/08/06 05:48:29;;;;;;;34.85;17.25;;;;;;;18.60;70.16;99295.88;5075385;28;20044;-83
2021/08/06 05:50:55;;;;;;;35.35;16.75;;;;;;;18.56;69.81;99292.72;5025232;28;20074;-82
2021/08/06 05:53:24;;;;;;;33.97;18.08;;;;;;;18.67;69.70;99290.66;5026600;28;20040;-79
2021/08/06 05:56:00;;;;;;;40.13;17.15;;;;;;;18.82;69.18;99291.50;5042412;28;20036;-80
2021/08/06 05:58:28;;;;;;;35.50;17.38;;;;;;;19.01;68.44;99289.38;5075587;28;20706;-81
2021/08/06 06:00:55;;;;;;;39.97;16.70;;;;;;;19.22;67.89;99288.66;5073961;28;20052;-79
2021/08/06 06:03:28;;;;;;;35.65;16.42;;;;;;;19.44;67.14;99289.56;5060149;28;20052;-81
2021/08/06 06:06:04;;;;;;;39.80;17.30;;;;;;;19.70;66.57;99286.41;5058584;28;20093;-79
2021/08/06 06:08:32;;;;;;;31.63;15.88;;;;;;;20.04;66.07;99287.66;5059652;28;20039;-81
2021/08/06 06:10:58;;;;;;;36.47;17.07;;;;;;;20.35;65.59;99277.66;5025610;28;20412;-81
2021/08/06 06:13:24;;;;;;;45.42;17.70;;;;;;;20.38;65.81;99281.81;5058477;28;20055;-78
2021/08/06 06:15:53;;;;;;;48.63;19.00;;;;;;;20.42;65.72;99278.50;5059679;28;20058;-81
2021/08/06 06:18:19;;;;;;;42.50;19.58;;;;;;;20.25;65.90;99280.66;5075476;28;20051;-79
2021/08/06 06:20:45;;;;;;;42.28;18.13;;;;;;;20.23;65.79;99271.94;5060327;28;20075;-79
2021/08/06 06:23:13;;;;;;;45.00;17.90;;;;;;;20.27;66.20;99283.94;5058250;28;20055;-79
2021/08/06 06:25:39;;;;;;;42.17;17.70;;;;;;;20.30;65.64;99280.06;5041935;28;20044;-81
2021/08/06 06:28:06;;;;;;;60.97;18.42;;;;;;;20.27;65.99;99270.53;5041438;28;20055;-79
2021/08/06 06:30:37;;;;;;;50.40;18.02;;;;;;;20.31;66.25;99266.44;5057694;28;20036;-78
2021/08/06 06:33:04;;;;;;;69.47;19.00;;;;;;;20.45;65.84;99272.78;5040689;28;20129;-77
2021/08/06 06:35:31;;;;;;;43.20;17.95;;;;;;;20.49;65.33;99276.72;5057534;28;20067;-80
2021/08/06 06:37:58;;;;;;;42.25;17.98;;;;;;;20.52;65.05;99279.03;5041890;28;20036;-81
2021/08/06 06:40:26;;;;;;;52.30;17.45;;;;;;;20.56;65.12;99284.03;5025209;28;20050;-81
2021/08/06 06:42:55;;;;;;;48.10;17.52;;;;;;;20.56;65.12;99281.34;5043011;28;20074;-80
2021/08/06 06:45:22;;;;;;;;;;;;;;;20.51;65.21;99285.44;5075863;28;20036;-82
2021/08/06 06:47:51;;;;;;;33.78;15.50;;;;;;;20.47;65.95;99289.53;5057879;28;19993;-81
2021/08/06 06:50:22;;;;;;;44.80;16.55;;;;;;;20.53;65.64;99296.81;5078125;28;20036;-81
2021/08/06 06:52:49;;;;;;;39.95;16.50;;;;;;;20.55;65.59;99288.56;5062052;28;20040;-80
2021/08/06 06:55:15;;;;;;;38.38;19.63;;;;;;;20.48;65.87;99293.88;5078107;28;20051;-78
2021/08/06 06:57:46;;;;;;;48.60;22.30;;;;;;;20.53;65.42;99301.34;5044871;28;20139;-78
2021/08/06 07:00:15;;;;;;;47.92;25.65;;;;;;;20.59;65.06;99299.78;5079179;28;20044;-84
2021/08/06 07:02:41;;;;;;;48.70;24.58;;;;;;;20.59;65.30;99289.84;5063215;28;20035;-80
2021/08/06 07:05:08;;;;;;;44.75;21.23;;;;;;;20.55;65.40;99298.47;5063845;28;20043;-81
2021/08/06 07:07:34;;;;;;;39.15;20.15;;;;;;;20.50;65.71;99294.50;5047137;28;20032;-80
2021/08/06 07:10:01;;;;;;;35.47;18.30;;;;;;;20.44;66.23;99300.66;5033059;28;20070;-79
2021/08/06 07:12:27;;;;;;;36.15;17.60;;;;;;;20.43;66.46;99299.00;5039599;28;20060;-78
2021/08/06 07:14:53;;;;;;;40.45;17.63;;;;;;;20.49;66.59;99292.03;5022776;28;20124;-78
2021/08/06 07:17:19;;;;;;;30.65;15.85;;;;;;;20.59;66.36;99295.22;5038906;28;20532;-79
2021/08/06 07:19:45;;;;;;;30.73;15.75;;;;;;;20.58;65.98;99304.28;5041399;28;20041;-80
2021/08/06 07:22:11;;;;;;;28.05;14.65;;;;;;;20.74;65.13;99303.22;5054520;28;20041;-79
2021/08/06 07:24:37;;;;;;;26.10;14.75;;;;;;;20.99;62.60;99297.44;5039972;28;20055;-80
2021/08/06 07:27:03;;;;;;;27.45;15.48;;;;;;;21.24;62.92;99302.34;5037634;28;20048;-80
2021/08/06 07:29:31;;;;;;;26.33;15.90;;;;;;;21.59;62.40;99299.69;5055066;28;20098;-81
2021/08/06 07:31:59;;;;;;;26.77;14.90;;;;;;;21.54;61.85;99294.03;5003213;28;20045;-80
2021/08/06 07:34:25;;;;;;;28.00;14.48;;;;;;;21.48;61.22;99296.50;5052804;28;20191;-81
2021/08/06 07:36:51;;;;;;;32.08;15.68;;;;;;;21.32;61.71;99291.41;5003677;28;20053;-78
2021/08/06 07:39:17;;;;;;;29.25;15.65;;;;;;;21.02;62.49;99286.25;5004538;28;20084;-82
2021/08/06 07:41:43;;;;;;;32.60;15.18;;;;;;;20.98;63.25;99287.69;5037168;28;20053;-81
2021/08/06 07:44:08;;;;;;;35.22;15.10;;;;;;;20.90;63.96;99282.44;5003602;28;20153;-81
2021/08/06 07:46:35;;;;;;;25.25;14.05;;;;;;;20.93;64.00;99276.69;5018805;28;20049;-79
2021/08/06 07:49:01;;;;;;;23.73;13.32;;;;;;;20.88;64.31;99271.09;5002184;28;20072;-80
2021/08/06 07:51:29;;;;;;;22.55;12.65;;;;;;;20.84;64.40;99271.47;5034402;28;20051;-83
2021/08/06 07:53:55;;;;;;;27.20;13.90;;;;;;;20.81;64.43;99271.88;5018876;28;20049;-83
2021/08/06 07:56:21;;;;;;;27.15;13.38;;;;;;;20.80;64.61;99275.56;5016785;28;20050;-82
2021/08/06 07:58:47;;;;;;;25.63;14.10;;;;;;;20.73;65.61;99269.31;5018227;28;20041;-82
2021/08/06 08:01:13;;;;;;;23.65;14.27;;;;;;;20.65;67.05;99269.44;5016837;28;20041;-78
2021/08/06 08:03:39;;;;;;;26.98;14.05;;;;;;;20.53;66.28;99278.00;5051881;28;20064;-79
2021/08/06 08:06:05;;;;;;;24.88;13.52;;;;;;;20.67;66.48;99280.81;5025380;28;20053;-81
2021/08/06 08:08:32;;;;;;;24.08;13.27;;;;;;;20.76;66.07;99282.38;5040552;28;20149;-81
2021/08/06 08:11:00;;;;;;;24.50;13.70;;;;;;;20.85;66.29;99280.38;5038414;28;20055;-80
2021/08/06 08:13:26;;;;;;;27.50;15.98;;;;;;;21.03;66.39;99285.25;5016985;28;20044;-85
2021/08/06 08:15:57;;;;;;;26.58;15.18;;;;;;;21.26;65.13;99273.38;5042266;28;20045;-85
2021/08/06 08:18:25;;;;;;;28.88;15.00;;;;;;;21.55;65.02;99276.88;5008995;28;20145;-80
2021/08/06 08:20:51;;;;;;;25.80;15.07;;;;;;;21.88;63.65;99262.72;5057607;28;20474;-82
2021/08/06 08:23:18;;;;;;;25.90;15.73;;;;;;;22.06;63.52;99268.38;5057500;28;20032;-80
2021/08/06 08:25:47;;;;;;;23.33;14.90;;;;;;;22.27;62.48;99271.94;5074898;28;20517;-80
2021/08/06 08:28:13;;;;;;;27.73;15.93;;;;;;;22.51;61.67;99261.63;5041566;28;20080;-82
2021/08/06 08:30:42;;;;;;;23.55;15.80;;;;;;;22.85;61.02;99270.53;5040954;28;20114;-81
2021/08/06 08:33:10;;;;;;;32.78;16.40;;;;;;;23.10;60.04;99258.06;5057443;28;20036;-82
2021/08/06 08:35:37;;;;;;;31.43;18.13;;;;;;;23.08;60.01;99262.84;5041290;28;20044;-83
2021/08/06 08:38:05;;;;;;;28.17;16.25;;;;;;;23.00;59.65;99267.63;5038377;28;20037;-83
2021/08/06 08:40:31;;;;;;;27.85;16.55;;;;;;;23.01;59.76;99269.28;5004206;28;20037;-80
2021/08/06 08:42:58;;;;;;;32.70;18.02;;;;;;;23.01;59.35;99258.50;5037865;28;20095;-81
2021/08/06 08:45:28;;;;;;;32.17;17.45;;;;;;;22.91;59.33;99258.91;5006868;28;20067;-81
2021/08/06 08:47:54;;;;;;;30.92;17.83;;;;;;;22.88;60.41;99256.63;5004684;28;20106;-81
2021/08/06 08:50:20;;;;;;;30.25;14.55;;;;;;;22.81;59.30;99258.53;5021344;28;20094;-81
2021/08/06 08:52:47;;;;;;;33.73;18.07;;;;;;;22.77;60.50;99258.94;5022581;28;20051;-79
2021/08/06 08:55:13;;;;;;;34.75;17.08;;;;;;;22.82;60.28;99261.00;5004613;28;20307;-78
2021/08/06 08:57:40;;;;;;;25.58;14.82;;;;;;;22.61;60.21;99270.13;5039491;28;20055;-79
2021/08/06 09:00:09;;;;;;;29.38;15.25;;;;;;;22.59;60.42;99264.09;5038641;28;20124;-85
2021/08/06 09:02:41;;;;;;;26.98;14.25;;;;;;;22.65;60.08;99263.28;4986153;28;20058;-78
2021/08/06 09:05:07;;;;;;;29.30;14.23;;;;;;;22.71;60.68;99270.53;4986393;28;20139;-81
2021/08/06 09:07:35;;;;;;;22.10;13.82;;;;;;;22.71;60.24;99262.44;4983866;28;20044;-81
2021/08/06 09:10:24;;;;;;;22.33;12.80;;;;;;;22.58;59.93;99273.22;5001608;28;20041;-80
2021/08/06 09:13:24;;;;;;;23.90;13.10;;;;;;;22.48;60.93;99270.13;5005971;28;20148;-82
2021/08/06 09:16:00;;;;;;;25.08;13.85;;;;;;;22.51;60.86;99281.31;4955391;28;20045;-82
2021/08/06 09:18:32;;;;;;;21.73;13.55;;;;;;;22.57;61.07;99285.06;4984845;28;20041;-82
2021/08/06 09:21:08;;;;;;;23.65;13.45;;;;;;;22.41;61.63;99276.34;5001511;28;20051;-80
2021/08/06 09:23:44;;;;;;;26.30;13.65;;;;;;;22.38;62.06;99287.53;5016756;28;20037;-81
2021/08/06 09:26:41;;;;;;;20.58;12.60;;;;;;;22.19;62.11;99299.06;4984883;28;20041;-84
2021/08/06 09:29:13;;;;;;;23.48;12.90;;;;;;;22.19;62.34;99299.06;4984667;28;20084;-80
2021/08/06 09:31:52;;;;;;;24.67;13.48;;;;;;;21.93;62.80;99300.63;5018816;28;20045;-81
2021/08/06 09:34:24;;;;;;;22.15;14.02;;;;;;;21.78;63.70;99308.88;5000638;28;20069;-80
2021/08/06 09:37:12;;;;;;;26.08;15.05;;;;;;;21.66;64.78;99305.94;4984159;28;20487;-79
2021/08/06 09:39:54;;;;;;;29.63;14.90;;;;;;;21.61;65.72;99305.72;4974212;28;20050;-79
2021/08/06 09:42:39;;;;;;;23.65;15.63;;;;;;;21.51;66.44;99308.72;4994010;28;20499;-81
2021/08/06 09:45:09;;;;;;;27.33;15.75;;;;;;;21.39;67.45;99297.69;4960356;28;20046;-80
2021/08/06 09:47:37;;;;;;;28.48;15.82;;;;;;;21.25;67.84;99301.34;4976020;28;20618;-78
2021/08/06 09:50:17;;;;;;;38.50;16.00;;;;;;;21.13;69.60;99296.50;4960542;28;20050;-82
2021/08/06 09:52:46;;;;;;;25.65;15.88;;;;;;;21.07;69.61;99296.44;4993075;28;20065;-82
2021/08/06 09:55:24;;;;;;;26.73;16.65;;;;;;;21.03;70.02;99293.31;4975543;28;20053;-81
2021/08/06 09:57:51;;;;;;;27.65;16.55;;;;;;;21.06;70.06;99295.63;4976085;28;20549;-79
2021/08/06 10:00:19;;;;;;;29.08;17.98;;;;;;;21.04;70.00;99297.66;4943836;28;20172;-83
2021/08/06 10:02:45;;;;;;;26.80;16.23;;;;;;;21.04;70.33;99297.66;4959396;28;20046;-82
2021/08/06 10:05:13;;;;;;;24.75;16.23;;;;;;;21.03;70.28;99298.69;4960579;28;20466;-81
2021/08/06 10:07:46;;;;;;;29.73;17.33;;;;;;;21.04;70.80;99303.03;4960739;28;20057;-81
2021/08/06 10:10:15;;;;;;;27.00;17.02;;;;;;;20.94;70.56;99305.25;4982432;28;20049;-82
2021/08/06 10:12:41;;;;;;;28.75;16.48;;;;;;;20.87;70.83;99296.28;5019321;28;20513;-78
2021/08/06 10:15:08;;;;;;;26.80;16.25;;;;;;;20.76;70.97;99292.28;5038686;28;20569;-81
2021/08/06 10:17:34;;;;;;;29.30;18.13;;;;;;;20.74;71.05;99295.16;5020646;28;20418;-81
2021/08/06 10:20:00;;;;;;;29.60;18.48;;;;;;;20.67;71.23;99289.72;5036327;28;20082;-81
2021/08/06 10:22:27;;;;;;;29.08;18.02;;;;;;;20.64;71.50;99291.97;5051665;28;20032;-85
2021/08/06 10:24:56;;;;;;;27.85;16.90;;;;;;;20.63;71.40;99285.72;5034981;28;20053;-79
2021/08/06 10:27:27;;;;;;;26.38;17.45;;;;;;;20.68;71.74;99293.22;5035241;28;20029;-81
2021/08/06 10:30:07;;;;;;;27.42;17.52;;;;;;;20.71;71.71;99292.88;5002976;28;20036;-83
2021/08/06 10:32:34;;;;;;;28.25;17.70;;;;;;;20.78;71.41;99288.38;5034907;28;20049;-84
2021/08/06 10:35:07;;;;;;;27.92;17.70;;;;;;;20.82;72.55;99284.28;5035384;28;20037;-80
2021/08/06 10:37:55;;;;;;;34.60;20.60;;;;;;;20.84;74.00;99284.09;5018398;28;20037;-80
2021/08/06 10:40:33;;;;;;;36.92;19.90;;;;;;;20.84;73.05;99287.59;5051402;28;20041;-79
2021/08/06 10:43:20;;;;;;;39.38;19.65;;;;;;;20.73;71.99;99280.06;5019421;28;20478;-82
2021/08/06 10:45:46;;;;;;;51.42;20.98;;;;;;;20.59;72.61;99275.59;5019124;28;20053;-80
2021/08/06 10:48:31;;;;;;;45.08;21.95;;;;;;;20.51;73.81;99271.16;5052446;28;20448;-83
2021/08/06 10:51:15;;;;;;;49.15;20.85;;;;;;;20.45;73.81;99272.78;5020098;28;20045;-82
2021/08/06 10:53:42;;;;;;;38.22;19.20;;;;;;;20.40;73.32;99280.59;5034566;28;20048;-82
2021/08/06 10:56:26;;;;;;;33.28;20.10;;;;;;;20.33;73.72;99285.06;5003304;28;20510;-82
2021/08/06 10:58:55;;;;;;;41.67;21.23;;;;;;;20.31;74.42;99281.72;5051733;28;20044;-79
2021/08/06 11:01:33;;;;;;;44.38;22.10;;;;;;;20.39;74.75;99286.97;5034926;28;20130;-84
2021/08/06 11:04:16;;;;;;;54.25;22.13;;;;;;;20.45;74.54;99283.53;5035030;28;20060;-80
2021/08/06 11:06:46;;;;;;;37.92;19.52;;;;;;;20.52;73.57;99279.03;5035147;28;20052;-80
2021/08/06 11:09:25;;;;;;;36.05;19.75;;;;;;;20.62;73.08;99277.88;5035504;28;20049;-81
2021/08/06 11:11:55;;;;;;;37.88;20.42;;;;;;;20.72;72.63;99289.13;5034898;28;20052;-81
2021/08/06 11:14:33;;;;;;;32.17;18.75;;;;;;;20.76;72.38;99285.06;5034376;28;20597;-82
2021/08/06 11:17:20;;;;;;;32.92;19.50;;;;;;;20.72;72.88;99282.94;5050882;28;20053;-81
2021/08/06 11:19:50;;;;;;;38.55;21.08;;;;;;;20.71;73.28;99287.50;5017997;28;20045;-82
2021/08/06 11:22:27;;;;;;;33.67;21.00;;;;;;;20.68;72.32;99272.53;5035584;28;20156;-79
2021/08/06 11:25:07;;;;;;;40.92;22.92;;;;;;;20.65;73.18;99266.75;5033842;28;20494;-80
2021/08/06 11:27:38;;;;;;;39.80;23.15;;;;;;;20.69;73.36;99262.63;5034423;28;20037;-82